sensor_id;sensor_type;location;lat;lon;timestamp;P1;durP1;ratioP1;P2;durP2;ratioP2
41255;SDS011;26989;45.524;10.938;2023-11-22T00:01:05;6.40;;;3.60;;
41255;SDS011;26989;45.524;10.938;2023-11-22T00:03:32;7.45;;;4.38;;
41255;SDS011;26989;45.524;10.938;2023-11-22T00:05:59;7.20;;;4.20;;
41255;SDS011;26989;45.524;10.938;2023-11-22T00:08:28;6.80;;;3.85;;
41255;SDS011;26989;45.524;10.938;2023-11-22T00:10:55;6.85;;;4.40;;
41255;SDS011;26989;45.524;10.938;2023-11-22T00:13:23;7.70;;;4.18;;
41255;SDS011;26989;45.524;10.938;2023-11-22T00:15:50;7.43;;;3.90;;
41255;SDS011;26989;45.524;10.938;2023-11-22T00:18:17;5.65;;;3.72;;
41255;SDS011;26989;45.524;10.938;2023-11-22T00:20:44;7.35;;;4.72;;
41255;SDS011;26989;45.524;10.938;2023-11-22T00:23:14;9.50;;;4.22;;
41255;SDS011;26989;45.524;10.938;2023-11-22T00:25:41;6.53;;;4.28;;
41255;SDS011;26989;45.524;10.938;2023-11-22T00:28:08;6.55;;;3.95;;
41255;SDS011;26989;45.524;10.938;2023-11-22T00:30:35;9.35;;;4.05;;
41255;SDS011;26989;45.524;10.938;2023-11-22T00:33:02;7.57;;;4.00;;
41255;SDS011;26989;45.524;10.938;2023-11-22T00:35:31;7.22;;;4.38;;
41255;SDS011;26989;45.524;10.938;2023-11-22T00:37:58;8.73;;;4.82;;
41255;SDS011;26989;45.524;10.938;2023-11-22T00:40:25;6.75;;;3.95;;
41255;SDS011;26989;45.524;10.938;2023-11-22T00:42:52;6.75;;;4.25;;
41255;SDS011;26989;45.524;10.938;2023-11-22T00:45:19;7.13;;;4.28;;
41255;SDS011;26989;45.524;10.938;2023-11-22T00:47:46;10.55;;;4.75;;
41255;SDS011;26989;45.524;10.938;2023-11-22T00:50:13;8.32;;;4.18;;
41255;SDS011;26989;45.524;10.938;2023-11-22T00:52:40;7.25;;;4.45;;
41255;SDS011;26989;45.524;10.938;2023-11-22T00:55:11;9.52;;;4.93;;
41255;SDS011;26989;45.524;10.938;2023-11-22T00:57:38;7.85;;;5.18;;
41255;SDS011;26989;45.524;10.938;2023-11-22T01:00:06;10.75;;;5.32;;
41255;SDS011;26989;45.524;10.938;2023-11-22T01:02:38;8.60;;;4.45;;
41255;SDS011;26989;45.524;10.938;2023-11-22T01:05:06;9.90;;;5.40;;
41255;SDS011;26989;45.524;10.938;2023-11-22T01:07:39;10.32;;;5.35;;
41255;SDS011;26989;45.524;10.938;2023-11-22T01:10:06;8.98;;;4.95;;
41255;SDS011;26989;45.524;10.938;2023-11-22T01:12:33;7.00;;;4.15;;
41255;SDS011;26989;45.524;10.938;2023-11-22T01:15:00;9.00;;;4.90;;
41255;SDS011;26989;45.524;10.938;2023-11-22T01:17:28;8.68;;;5.10;;
41255;SDS011;26989;45.524;10.938;2023-11-22T01:19:55;11.45;;;4.88;;
41255;SDS011;26989;45.524;10.938;2023-11-22T01:22:22;9.75;;;6.30;;
41255;SDS011;26989;45.524;10.938;2023-11-22T01:24:48;7.68;;;5.10;;
41255;SDS011;26989;45.524;10.938;2023-11-22T01:27:15;9.85;;;5.65;;
41255;SDS011;26989;45.524;10.938;2023-11-22T01:29:42;9.65;;;5.25;;
41255;SDS011;26989;45.524;10.938;2023-11-22T01:32:09;9.63;;;5.72;;
41255;SDS011;26989;45.524;10.938;2023-11-22T01:34:36;9.38;;;5.35;;
41255;SDS011;26989;45.524;10.938;2023-11-22T01:37:03;10.52;;;5.78;;
41255;SDS011;26989;45.524;10.938;2023-11-22T01:39:30;13.13;;;6.43;;
41255;SDS011;26989;45.524;10.938;2023-11-22T01:41:57;7.97;;;5.70;;
41255;SDS011;26989;45.524;10.938;2023-11-22T01:44:24;9.38;;;5.25;;
41255;SDS011;26989;45.524;10.938;2023-11-22T01:46:53;9.57;;;5.72;;
41255;SDS011;26989;45.524;10.938;2023-11-22T01:49:20;9.90;;;5.35;;
41255;SDS011;26989;45.524;10.938;2023-11-22T01:51:50;10.98;;;5.75;;
41255;SDS011;26989;45.524;10.938;2023-11-22T01:54:17;9.10;;;5.53;;
41255;SDS011;26989;45.524;10.938;2023-11-22T01:56:46;11.20;;;5.28;;
41255;SDS011;26989;45.524;10.938;2023-11-22T01:59:14;8.55;;;5.20;;
41255;SDS011;26989;45.524;10.938;2023-11-22T02:01:42;9.50;;;5.75;;
41255;SDS011;26989;45.524;10.938;2023-11-22T02:04:11;11.38;;;6.18;;
41255;SDS011;26989;45.524;10.938;2023-11-22T02:06:39;10.77;;;6.13;;
41255;SDS011;26989;45.524;10.938;2023-11-22T02:09:06;10.32;;;6.00;;
41255;SDS011;26989;45.524;10.938;2023-11-22T02:11:35;11.80;;;5.70;;
41255;SDS011;26989;45.524;10.938;2023-11-22T02:14:02;11.85;;;6.15;;
41255;SDS011;26989;45.524;10.938;2023-11-22T02:16:29;9.07;;;5.22;;
41255;SDS011;26989;45.524;10.938;2023-11-22T02:18:56;11.25;;;5.25;;
41255;SDS011;26989;45.524;10.938;2023-11-22T02:21:22;9.52;;;4.97;;
41255;SDS011;26989;45.524;10.938;2023-11-22T02:23:49;8.45;;;5.35;;
41255;SDS011;26989;45.524;10.938;2023-11-22T02:26:16;12.70;;;6.03;;
41255;SDS011;26989;45.524;10.938;2023-11-22T02:28:46;12.45;;;6.35;;
41255;SDS011;26989;45.524;10.938;2023-11-22T02:31:14;12.65;;;6.75;;
41255;SDS011;26989;45.524;10.938;2023-11-22T02:33:41;16.10;;;6.13;;
41255;SDS011;26989;45.524;10.938;2023-11-22T02:36:08;10.35;;;4.97;;
41255;SDS011;26989;45.524;10.938;2023-11-22T02:38:38;9.20;;;4.88;;
41255;SDS011;26989;45.524;10.938;2023-11-22T02:41:06;10.57;;;4.93;;
41255;SDS011;26989;45.524;10.938;2023-11-22T02:43:35;7.97;;;4.63;;
41255;SDS011;26989;45.524;10.938;2023-11-22T02:46:02;9.70;;;5.00;;
41255;SDS011;26989;45.524;10.938;2023-11-22T02:48:30;9.38;;;4.72;;
41255;SDS011;26989;45.524;10.938;2023-11-22T02:50:57;10.40;;;6.07;;
41255;SDS011;26989;45.524;10.938;2023-11-22T02:53:24;9.82;;;5.65;;
41255;SDS011;26989;45.524;10.938;2023-11-22T02:55:51;10.75;;;4.85;;
41255;SDS011;26989;45.524;10.938;2023-11-22T02:58:18;7.22;;;4.32;;
41255;SDS011;26989;45.524;10.938;2023-11-22T03:00:45;6.78;;;4.40;;
41255;SDS011;26989;45.524;10.938;2023-11-22T03:03:11;7.65;;;4.53;;
41255;SDS011;26989;45.524;10.938;2023-11-22T03:05:39;8.68;;;4.85;;
41255;SDS011;26989;45.524;10.938;2023-11-22T03:08:06;9.02;;;3.72;;
41255;SDS011;26989;45.524;10.938;2023-11-22T03:10:34;10.40;;;4.55;;
41255;SDS011;26989;45.524;10.938;2023-11-22T03:13:01;9.30;;;4.40;;
41255;SDS011;26989;45.524;10.938;2023-11-22T03:15:28;7.85;;;4.35;;
41255;SDS011;26989;45.524;10.938;2023-11-22T03:17:55;8.63;;;4.35;;
41255;SDS011;26989;45.524;10.938;2023-11-22T03:20:22;7.53;;;4.28;;
41255;SDS011;26989;45.524;10.938;2023-11-22T03:22:49;8.80;;;4.40;;
41255;SDS011;26989;45.524;10.938;2023-11-22T03:25:17;10.65;;;5.32;;
41255;SDS011;26989;45.524;10.938;2023-11-22T03:27:44;12.30;;;5.20;;
41255;SDS011;26989;45.524;10.938;2023-11-22T03:30:13;8.75;;;4.75;;
41255;SDS011;26989;45.524;10.938;2023-11-22T03:32:41;6.28;;;3.92;;
41255;SDS011;26989;45.524;10.938;2023-11-22T03:35:10;9.20;;;4.63;;
41255;SDS011;26989;45.524;10.938;2023-11-22T03:37:38;8.63;;;4.75;;
41255;SDS011;26989;45.524;10.938;2023-11-22T03:40:05;9.40;;;5.22;;
41255;SDS011;26989;45.524;10.938;2023-11-22T03:42:34;6.50;;;4.18;;
41255;SDS011;26989;45.524;10.938;2023-11-22T03:45:04;8.05;;;4.18;;
41255;SDS011;26989;45.524;10.938;2023-11-22T03:47:33;8.35;;;4.25;;
41255;SDS011;26989;45.524;10.938;2023-11-22T03:50:05;10.35;;;4.90;;
41255;SDS011;26989;45.524;10.938;2023-11-22T03:52:33;9.38;;;4.32;;
41255;SDS011;26989;45.524;10.938;2023-11-22T03:55:00;9.45;;;5.80;;
41255;SDS011;26989;45.524;10.938;2023-11-22T03:57:27;6.32;;;4.30;;
41255;SDS011;26989;45.524;10.938;2023-11-22T03:59:53;8.88;;;4.05;;
41255;SDS011;26989;45.524;10.938;2023-11-22T04:02:20;6.95;;;3.80;;
41255;SDS011;26989;45.524;10.938;2023-11-22T04:04:47;7.68;;;4.13;;
41255;SDS011;26989;45.524;10.938;2023-11-22T04:07:14;6.28;;;4.00;;
41255;SDS011;26989;45.524;10.938;2023-11-22T04:09:41;6.10;;;3.80;;
41255;SDS011;26989;45.524;10.938;2023-11-22T04:12:09;6.63;;;3.92;;
41255;SDS011;26989;45.524;10.938;2023-11-22T04:14:36;7.47;;;4.05;;
41255;SDS011;26989;45.524;10.938;2023-11-22T04:17:03;6.78;;;3.22;;
41255;SDS011;26989;45.524;10.938;2023-11-22T04:19:30;9.02;;;3.63;;
41255;SDS011;26989;45.524;10.938;2023-11-22T04:21:57;5.78;;;3.28;;
41255;SDS011;26989;45.524;10.938;2023-11-22T04:24:25;5.85;;;2.92;;
41255;SDS011;26989;45.524;10.938;2023-11-22T04:26:52;7.18;;;3.50;;
41255;SDS011;26989;45.524;10.938;2023-11-22T04:29:19;8.45;;;3.67;;
41255;SDS011;26989;45.524;10.938;2023-11-22T04:31:46;6.68;;;3.00;;
41255;SDS011;26989;45.524;10.938;2023-11-22T04:34:13;4.15;;;2.60;;
41255;SDS011;26989;45.524;10.938;2023-11-22T04:36:40;4.00;;;2.13;;
41255;SDS011;26989;45.524;10.938;2023-11-22T04:39:07;4.47;;;2.90;;
41255;SDS011;26989;45.524;10.938;2023-11-22T04:41:36;3.97;;;2.55;;
41255;SDS011;26989;45.524;10.938;2023-11-22T04:44:03;4.47;;;2.55;;
41255;SDS011;26989;45.524;10.938;2023-11-22T04:46:30;5.82;;;3.30;;
41255;SDS011;26989;45.524;10.938;2023-11-22T04:48:58;4.68;;;2.25;;
41255;SDS011;26989;45.524;10.938;2023-11-22T04:51:25;4.53;;;2.08;;
41255;SDS011;26989;45.524;10.938;2023-11-22T04:53:52;6.47;;;3.03;;
41255;SDS011;26989;45.524;10.938;2023-11-22T04:56:19;4.22;;;2.10;;
41255;SDS011;26989;45.524;10.938;2023-11-22T04:58:46;2.78;;;1.65;;
41255;SDS011;26989;45.524;10.938;2023-11-22T05:01:13;2.53;;;1.70;;
41255;SDS011;26989;45.524;10.938;2023-11-22T05:03:43;2.30;;;1.50;;
41255;SDS011;26989;45.524;10.938;2023-11-22T05:06:10;3.35;;;1.42;;
41255;SDS011;26989;45.524;10.938;2023-11-22T05:08:37;2.28;;;1.30;;
41255;SDS011;26989;45.524;10.938;2023-11-22T05:11:04;2.60;;;1.20;;
41255;SDS011;26989;45.524;10.938;2023-11-22T05:13:31;4.63;;;2.17;;
41255;SDS011;26989;45.524;10.938;2023-11-22T05:15:58;2.50;;;1.50;;
41255;SDS011;26989;45.524;10.938;2023-11-22T05:18:25;3.28;;;1.13;;
41255;SDS011;26989;45.524;10.938;2023-11-22T05:20:52;2.00;;;1.05;;
41255;SDS011;26989;45.524;10.938;2023-11-22T05:23:19;2.13;;;1.13;;
41255;SDS011;26989;45.524;10.938;2023-11-22T05:25:46;3.03;;;1.27;;
41255;SDS011;26989;45.524;10.938;2023-11-22T05:28:12;2.88;;;1.13;;
41255;SDS011;26989;45.524;10.938;2023-11-22T05:30:40;2.25;;;1.30;;
41255;SDS011;26989;45.524;10.938;2023-11-22T05:33:07;1.15;;;1.00;;
41255;SDS011;26989;45.524;10.938;2023-11-22T05:35:34;2.33;;;1.38;;
41255;SDS011;26989;45.524;10.938;2023-11-22T05:38:01;2.13;;;1.30;;
41255;SDS011;26989;45.524;10.938;2023-11-22T05:40:28;1.95;;;1.15;;
41255;SDS011;26989;45.524;10.938;2023-11-22T05:42:55;2.10;;;1.25;;
41255;SDS011;26989;45.524;10.938;2023-11-22T05:45:22;2.88;;;2.20;;
41255;SDS011;26989;45.524;10.938;2023-11-22T05:47:50;2.28;;;1.30;;
41255;SDS011;26989;45.524;10.938;2023-11-22T05:50:17;3.50;;;1.52;;
41255;SDS011;26989;45.524;10.938;2023-11-22T05:52:44;2.63;;;1.00;;
41255;SDS011;26989;45.524;10.938;2023-11-22T05:55:11;4.40;;;1.10;;
41255;SDS011;26989;45.524;10.938;2023-11-22T05:57:41;1.58;;;1.00;;
41255;SDS011;26989;45.524;10.938;2023-11-22T06:00:08;5.25;;;1.30;;
41255;SDS011;26989;45.524;10.938;2023-11-22T06:02:35;1.60;;;1.20;;
41255;SDS011;26989;45.524;10.938;2023-11-22T06:05:04;1.80;;;1.25;;
41255;SDS011;26989;45.524;10.938;2023-11-22T06:07:32;1.75;;;1.38;;
41255;SDS011;26989;45.524;10.938;2023-11-22T06:09:59;2.38;;;1.23;;
41255;SDS011;26989;45.524;10.938;2023-11-22T06:12:29;2.72;;;1.60;;
41255;SDS011;26989;45.524;10.938;2023-11-22T06:14:56;4.00;;;1.63;;
41255;SDS011;26989;45.524;10.938;2023-11-22T06:17:23;2.60;;;1.30;;
41255;SDS011;26989;45.524;10.938;2023-11-22T06:19:50;2.45;;;1.38;;
41255;SDS011;26989;45.524;10.938;2023-11-22T06:22:17;2.47;;;1.40;;
41255;SDS011;26989;45.524;10.938;2023-11-22T06:24:46;2.20;;;1.42;;
41255;SDS011;26989;45.524;10.938;2023-11-22T06:27:14;5.20;;;1.55;;
41255;SDS011;26989;45.524;10.938;2023-11-22T06:29:41;2.38;;;1.30;;
41255;SDS011;26989;45.524;10.938;2023-11-22T06:32:11;4.00;;;2.05;;
41255;SDS011;26989;45.524;10.938;2023-11-22T06:34:38;2.78;;;1.50;;
41255;SDS011;26989;45.524;10.938;2023-11-22T06:37:06;4.55;;;2.30;;
41255;SDS011;26989;45.524;10.938;2023-11-22T06:39:35;4.35;;;2.38;;
41255;SDS011;26989;45.524;10.938;2023-11-22T06:42:01;8.40;;;3.17;;
41255;SDS011;26989;45.524;10.938;2023-11-22T06:44:29;13.57;;;5.63;;
41255;SDS011;26989;45.524;10.938;2023-11-22T06:46:57;5.95;;;2.67;;
41255;SDS011;26989;45.524;10.938;2023-11-22T06:49:24;3.03;;;2.22;;
41255;SDS011;26989;45.524;10.938;2023-11-22T06:51:51;6.13;;;2.70;;
41255;SDS011;26989;45.524;10.938;2023-11-22T06:54:20;4.88;;;2.10;;
41255;SDS011;26989;45.524;10.938;2023-11-22T06:56:47;4.93;;;1.88;;
41255;SDS011;26989;45.524;10.938;2023-11-22T06:59:14;7.22;;;2.30;;
41255;SDS011;26989;45.524;10.938;2023-11-22T07:01:41;2.58;;;1.70;;
41255;SDS011;26989;45.524;10.938;2023-11-22T07:04:08;3.60;;;1.52;;
41255;SDS011;26989;45.524;10.938;2023-11-22T07:06:38;4.78;;;1.60;;
41255;SDS011;26989;45.524;10.938;2023-11-22T07:09:06;5.95;;;1.60;;
41255;SDS011;26989;45.524;10.938;2023-11-22T07:11:35;3.55;;;1.45;;
41255;SDS011;26989;45.524;10.938;2023-11-22T07:14:03;4.22;;;2.15;;
41255;SDS011;26989;45.524;10.938;2023-11-22T07:16:30;4.43;;;2.20;;
41255;SDS011;26989;45.524;10.938;2023-11-22T07:18:58;5.32;;;2.17;;
41255;SDS011;26989;45.524;10.938;2023-11-22T07:21:26;8.13;;;2.08;;
41255;SDS011;26989;45.524;10.938;2023-11-22T07:23:53;2.08;;;1.70;;
41255;SDS011;26989;45.524;10.938;2023-11-22T07:26:21;6.28;;;2.63;;
41255;SDS011;26989;45.524;10.938;2023-11-22T07:28:48;9.02;;;1.80;;
41255;SDS011;26989;45.524;10.938;2023-11-22T07:31:15;4.63;;;2.00;;
41255;SDS011;26989;45.524;10.938;2023-11-22T07:33:43;5.60;;;2.22;;
41255;SDS011;26989;45.524;10.938;2023-11-22T07:36:09;5.78;;;2.38;;
41255;SDS011;26989;45.524;10.938;2023-11-22T07:38:40;5.28;;;3.00;;
41255;SDS011;26989;45.524;10.938;2023-11-22T07:41:09;2.75;;;1.90;;
41255;SDS011;26989;45.524;10.938;2023-11-22T07:43:37;4.93;;;2.15;;
41255;SDS011;26989;45.524;10.938;2023-11-22T07:46:07;3.38;;;1.90;;
41255;SDS011;26989;45.524;10.938;2023-11-22T07:48:45;5.13;;;2.40;;
41255;SDS011;26989;45.524;10.938;2023-11-22T07:51:14;6.68;;;3.40;;
41255;SDS011;26989;45.524;10.938;2023-11-22T07:53:43;4.68;;;2.88;;
41255;SDS011;26989;45.524;10.938;2023-11-22T07:56:11;5.40;;;3.20;;
41255;SDS011;26989;45.524;10.938;2023-11-22T07:58:40;7.25;;;3.88;;
41255;SDS011;26989;45.524;10.938;2023-11-22T08:01:07;7.05;;;3.25;;
41255;SDS011;26989;45.524;10.938;2023-11-22T08:03:40;5.57;;;2.72;;
41255;SDS011;26989;45.524;10.938;2023-11-22T08:06:13;3.75;;;2.20;;
41255;SDS011;26989;45.524;10.938;2023-11-22T08:08:41;3.70;;;1.95;;
41255;SDS011;26989;45.524;10.938;2023-11-22T08:11:08;4.22;;;2.10;;
41255;SDS011;26989;45.524;10.938;2023-11-22T08:13:41;3.00;;;1.90;;
41255;SDS011;26989;45.524;10.938;2023-11-22T08:16:11;2.63;;;1.55;;
41255;SDS011;26989;45.524;10.938;2023-11-22T08:18:40;2.60;;;1.30;;
41255;SDS011;26989;45.524;10.938;2023-11-22T08:21:09;4.88;;;2.72;;
41255;SDS011;26989;45.524;10.938;2023-11-22T08:23:36;4.85;;;2.78;;
41255;SDS011;26989;45.524;10.938;2023-11-22T08:26:03;5.90;;;1.90;;
41255;SDS011;26989;45.524;10.938;2023-11-22T08:28:32;4.53;;;1.55;;
41255;SDS011;26989;45.524;10.938;2023-11-22T08:31:00;3.22;;;1.33;;
41255;SDS011;26989;45.524;10.938;2023-11-22T08:33:27;5.85;;;2.15;;
41255;SDS011;26989;45.524;10.938;2023-11-22T08:35:54;6.30;;;3.17;;
41255;SDS011;26989;45.524;10.938;2023-11-22T08:38:24;4.30;;;2.95;;
41255;SDS011;26989;45.524;10.938;2023-11-22T08:40:54;3.13;;;1.60;;
41255;SDS011;26989;45.524;10.938;2023-11-22T08:43:21;4.70;;;2.63;;
41255;SDS011;26989;45.524;10.938;2023-11-22T08:45:49;4.47;;;2.70;;
41255;SDS011;26989;45.524;10.938;2023-11-22T08:48:26;5.55;;;2.33;;
41255;SDS011;26989;45.524;10.938;2023-11-22T08:50:53;3.38;;;1.73;;
41255;SDS011;26989;45.524;10.938;2023-11-22T08:53:22;3.83;;;2.60;;
41255;SDS011;26989;45.524;10.938;2023-11-22T08:55:49;2.97;;;1.80;;
41255;SDS011;26989;45.524;10.938;2023-11-22T08:58:16;2.40;;;1.60;;
41255;SDS011;26989;45.524;10.938;2023-11-22T09:00:43;4.50;;;2.00;;
41255;SDS011;26989;45.524;10.938;2023-11-22T09:03:11;5.00;;;1.92;;
41255;SDS011;26989;45.524;10.938;2023-11-22T09:05:39;4.03;;;1.80;;
41255;SDS011;26989;45.524;10.938;2023-11-22T09:08:07;3.20;;;1.90;;
41255;SDS011;26989;45.524;10.938;2023-11-22T09:10:51;5.50;;;3.10;;
41255;SDS011;26989;45.524;10.938;2023-11-22T09:13:19;5.68;;;2.97;;
41255;SDS011;26989;45.524;10.938;2023-11-22T09:15:47;7.63;;;3.75;;
41255;SDS011;26989;45.524;10.938;2023-11-22T09:18:14;6.38;;;3.53;;
41255;SDS011;26989;45.524;10.938;2023-11-22T09:20:41;6.28;;;4.07;;
41255;SDS011;26989;45.524;10.938;2023-11-22T09:23:11;3.25;;;1.90;;
41255;SDS011;26989;45.524;10.938;2023-11-22T09:25:41;4.65;;;2.42;;
41255;SDS011;26989;45.524;10.938;2023-11-22T09:28:08;4.45;;;2.40;;
41255;SDS011;26989;45.524;10.938;2023-11-22T09:30:35;6.40;;;3.10;;
41255;SDS011;26989;45.524;10.938;2023-11-22T09:33:08;6.18;;;3.53;;
41255;SDS011;26989;45.524;10.938;2023-11-22T09:35:46;13.20;;;2.90;;
41255;SDS011;26989;45.524;10.938;2023-11-22T09:38:15;5.03;;;2.33;;
41255;SDS011;26989;45.524;10.938;2023-11-22T09:43:16;10.85;;;2.50;;
41255;SDS011;26989;45.524;10.938;2023-11-22T09:45:49;5.68;;;2.28;;
41255;SDS011;26989;45.524;10.938;2023-11-22T09:48:22;3.58;;;2.25;;
41255;SDS011;26989;45.524;10.938;2023-11-22T09:53:34;6.35;;;2.83;;
41255;SDS011;26989;45.524;10.938;2023-11-22T09:56:11;18.60;;;4.07;;
41255;SDS011;26989;45.524;10.938;2023-11-22T09:58:42;10.73;;;3.03;;
41255;SDS011;26989;45.524;10.938;2023-11-22T10:01:13;5.60;;;2.72;;
41255;SDS011;26989;45.524;10.938;2023-11-22T10:03:42;3.85;;;1.83;;
41255;SDS011;26989;45.524;10.938;2023-11-22T10:06:09;2.47;;;1.75;;
41255;SDS011;26989;45.524;10.938;2023-11-22T10:08:36;3.95;;;1.75;;
41255;SDS011;26989;45.524;10.938;2023-11-22T10:11:05;4.07;;;1.92;;
41255;SDS011;26989;45.524;10.938;2023-11-22T10:13:33;3.40;;;1.70;;
41255;SDS011;26989;45.524;10.938;2023-11-22T10:16:10;5.22;;;1.98;;
41255;SDS011;26989;45.524;10.938;2023-11-22T10:18:42;4.15;;;2.03;;
41255;SDS011;26989;45.524;10.938;2023-11-22T10:23:54;2.90;;;1.27;;
41255;SDS011;26989;45.524;10.938;2023-11-22T10:26:26;5.72;;;2.00;;
41255;SDS011;26989;45.524;10.938;2023-11-22T10:28:55;3.30;;;1.75;;
41255;SDS011;26989;45.524;10.938;2023-11-22T10:31:23;28.63;;;6.43;;
41255;SDS011;26989;45.524;10.938;2023-11-22T10:33:51;8.77;;;4.13;;
41255;SDS011;26989;45.524;10.938;2023-11-22T10:36:20;9.05;;;4.32;;
41255;SDS011;26989;45.524;10.938;2023-11-22T10:38:49;4.53;;;2.25;;
41255;SDS011;26989;45.524;10.938;2023-11-22T10:41:17;3.45;;;1.98;;
41255;SDS011;26989;45.524;10.938;2023-11-22T10:43:47;3.20;;;1.77;;
41255;SDS011;26989;45.524;10.938;2023-11-22T10:46:17;4.45;;;2.05;;
41255;SDS011;26989;45.524;10.938;2023-11-22T10:48:45;3.97;;;2.10;;
41255;SDS011;26989;45.524;10.938;2023-11-22T10:51:13;4.03;;;1.92;;
41255;SDS011;26989;45.524;10.938;2023-11-22T10:53:45;4.78;;;1.70;;
41255;SDS011;26989;45.524;10.938;2023-11-22T10:56:17;3.80;;;1.67;;
41255;SDS011;26989;45.524;10.938;2023-11-22T10:58:51;3.72;;;1.98;;
41255;SDS011;26989;45.524;10.938;2023-11-22T11:01:24;18.65;;;3.40;;
41255;SDS011;26989;45.524;10.938;2023-11-22T11:03:55;28.63;;;3.63;;
41255;SDS011;26989;45.524;10.938;2023-11-22T11:06:44;10.23;;;2.42;;
41255;SDS011;26989;45.524;10.938;2023-11-22T11:09:17;32.28;;;4.93;;
41255;SDS011;26989;45.524;10.938;2023-11-22T11:11:47;68.28;;;4.90;;
41255;SDS011;26989;45.524;10.938;2023-11-22T11:14:15;9.27;;;3.10;;
41255;SDS011;26989;45.524;10.938;2023-11-22T11:16:43;7.03;;;2.88;;
41255;SDS011;26989;45.524;10.938;2023-11-22T11:19:16;4.65;;;2.67;;
41255;SDS011;26989;45.524;10.938;2023-11-22T11:21:44;13.27;;;5.93;;
41255;SDS011;26989;45.524;10.938;2023-11-22T11:24:14;11.75;;;5.68;;
41255;SDS011;26989;45.524;10.938;2023-11-22T11:26:41;3.40;;;1.70;;
41255;SDS011;26989;45.524;10.938;2023-11-22T11:29:32;2.38;;;1.50;;
41255;SDS011;26989;45.524;10.938;2023-11-22T11:32:02;4.78;;;2.40;;
41255;SDS011;26989;45.524;10.938;2023-11-22T11:34:30;3.95;;;1.63;;
41255;SDS011;26989;45.524;10.938;2023-11-22T11:36:58;5.47;;;1.75;;
41255;SDS011;26989;45.524;10.938;2023-11-22T11:39:26;1.98;;;1.30;;
41255;SDS011;26989;45.524;10.938;2023-11-22T11:42:07;2.90;;;1.20;;
41255;SDS011;26989;45.524;10.938;2023-11-22T11:47:26;8.63;;;1.40;;
41255;SDS011;26989;45.524;10.938;2023-11-22T11:49:54;2.30;;;1.10;;
41255;SDS011;26989;45.524;10.938;2023-11-22T11:52:22;3.90;;;1.38;;
41255;SDS011;26989;45.524;10.938;2023-11-22T11:54:51;1.95;;;1.00;;
41255;SDS011;26989;45.524;10.938;2023-11-22T11:57:18;3.28;;;1.10;;
41255;SDS011;26989;45.524;10.938;2023-11-22T11:59:46;3.65;;;0.90;;
41255;SDS011;26989;45.524;10.938;2023-11-22T12:02:13;2.83;;;1.23;;
41255;SDS011;26989;45.524;10.938;2023-11-22T12:04:43;2.22;;;1.10;;
41255;SDS011;26989;45.524;10.938;2023-11-22T12:07:13;3.72;;;1.20;;
41255;SDS011;26989;45.524;10.938;2023-11-22T12:09:40;2.45;;;1.00;;
41255;SDS011;26989;45.524;10.938;2023-11-22T12:12:07;2.20;;;1.30;;
41255;SDS011;26989;45.524;10.938;2023-11-22T12:14:34;4.88;;;1.58;;
41255;SDS011;26989;45.524;10.938;2023-11-22T12:17:03;8.75;;;1.42;;
41255;SDS011;26989;45.524;10.938;2023-11-22T12:19:30;3.45;;;1.08;;
41255;SDS011;26989;45.524;10.938;2023-11-22T12:21:58;2.47;;;1.08;;
41255;SDS011;26989;45.524;10.938;2023-11-22T12:24:25;4.55;;;1.27;;
41255;SDS011;26989;45.524;10.938;2023-11-22T12:26:52;2.33;;;1.20;;
41255;SDS011;26989;45.524;10.938;2023-11-22T12:29:23;2.80;;;1.20;;
41255;SDS011;26989;45.524;10.938;2023-11-22T12:31:50;3.50;;;1.35;;
41255;SDS011;26989;45.524;10.938;2023-11-22T12:34:22;5.63;;;1.33;;
41255;SDS011;26989;45.524;10.938;2023-11-22T12:36:51;3.03;;;1.30;;
41255;SDS011;26989;45.524;10.938;2023-11-22T12:39:19;2.88;;;1.30;;
41255;SDS011;26989;45.524;10.938;2023-11-22T12:41:47;2.08;;;1.20;;
41255;SDS011;26989;45.524;10.938;2023-11-22T12:44:31;3.20;;;1.17;;
41255;SDS011;26989;45.524;10.938;2023-11-22T12:47:13;3.17;;;1.20;;
41255;SDS011;26989;45.524;10.938;2023-11-22T12:49:43;2.38;;;1.10;;
41255;SDS011;26989;45.524;10.938;2023-11-22T12:52:14;2.28;;;1.13;;
41255;SDS011;26989;45.524;10.938;2023-11-22T12:54:40;5.93;;;1.35;;
41255;SDS011;26989;45.524;10.938;2023-11-22T12:57:10;2.83;;;1.40;;
41255;SDS011;26989;45.524;10.938;2023-11-22T12:59:39;6.38;;;1.27;;
41255;SDS011;26989;45.524;10.938;2023-11-22T13:02:07;7.68;;;1.85;;
41255;SDS011;26989;45.524;10.938;2023-11-22T13:04:35;3.28;;;1.20;;
41255;SDS011;26989;45.524;10.938;2023-11-22T13:07:03;3.90;;;1.50;;
41255;SDS011;26989;45.524;10.938;2023-11-22T13:09:30;1.88;;;1.00;;
41255;SDS011;26989;45.524;10.938;2023-11-22T13:11:59;1.63;;;0.80;;
41255;SDS011;26989;45.524;10.938;2023-11-22T13:14:26;3.22;;;1.50;;
41255;SDS011;26989;45.524;10.938;2023-11-22T13:16:58;3.67;;;1.30;;
41255;SDS011;26989;45.524;10.938;2023-11-22T13:19:25;2.90;;;1.40;;
41255;SDS011;26989;45.524;10.938;2023-11-22T13:21:52;2.28;;;1.10;;
41255;SDS011;26989;45.524;10.938;2023-11-22T13:24:19;5.28;;;1.00;;
41255;SDS011;26989;45.524;10.938;2023-11-22T13:26:47;2.28;;;1.38;;
41255;SDS011;26989;45.524;10.938;2023-11-22T13:29:14;4.53;;;1.20;;
41255;SDS011;26989;45.524;10.938;2023-11-22T13:31:41;3.47;;;1.30;;
41255;SDS011;26989;45.524;10.938;2023-11-22T13:34:08;5.00;;;1.80;;
41255;SDS011;26989;45.524;10.938;2023-11-22T13:36:35;2.03;;;1.40;;
41255;SDS011;26989;45.524;10.938;2023-11-22T13:39:01;3.00;;;1.40;;
41255;SDS011;26989;45.524;10.938;2023-11-22T13:41:29;3.80;;;1.60;;
41255;SDS011;26989;45.524;10.938;2023-11-22T13:43:56;2.97;;;1.30;;
41255;SDS011;26989;45.524;10.938;2023-11-22T13:46:23;3.83;;;1.63;;
41255;SDS011;26989;45.524;10.938;2023-11-22T13:48:50;3.78;;;1.20;;
41255;SDS011;26989;45.524;10.938;2023-11-22T13:51:17;3.50;;;1.60;;
41255;SDS011;26989;45.524;10.938;2023-11-22T13:53:44;2.97;;;1.90;;
41255;SDS011;26989;45.524;10.938;2023-11-22T13:56:15;2.67;;;1.73;;
41255;SDS011;26989;45.524;10.938;2023-11-22T13:58:44;2.97;;;1.70;;
41255;SDS011;26989;45.524;10.938;2023-11-22T14:01:11;9.63;;;2.78;;
41255;SDS011;26989;45.524;10.938;2023-11-22T14:03:43;2.38;;;1.50;;
41255;SDS011;26989;45.524;10.938;2023-11-22T14:06:10;2.78;;;1.58;;
41255;SDS011;26989;45.524;10.938;2023-11-22T14:08:39;4.07;;;2.17;;
41255;SDS011;26989;45.524;10.938;2023-11-22T14:11:07;3.70;;;1.60;;
41255;SDS011;26989;45.524;10.938;2023-11-22T14:13:33;3.05;;;1.58;;
41255;SDS011;26989;45.524;10.938;2023-11-22T14:16:01;3.20;;;2.08;;
41255;SDS011;26989;45.524;10.938;2023-11-22T14:18:30;2.70;;;1.70;;
41255;SDS011;26989;45.524;10.938;2023-11-22T14:20:57;2.03;;;1.20;;
41255;SDS011;26989;45.524;10.938;2023-11-22T14:23:26;2.42;;;2.00;;
41255;SDS011;26989;45.524;10.938;2023-11-22T14:25:53;6.38;;;2.13;;
41255;SDS011;26989;45.524;10.938;2023-11-22T14:28:21;7.82;;;2.30;;
41255;SDS011;26989;45.524;10.938;2023-11-22T14:30:49;3.03;;;1.65;;
41255;SDS011;26989;45.524;10.938;2023-11-22T14:33:20;3.33;;;1.27;;
41255;SDS011;26989;45.524;10.938;2023-11-22T14:35:48;4.78;;;1.73;;
41255;SDS011;26989;45.524;10.938;2023-11-22T14:38:15;5.25;;;1.80;;
41255;SDS011;26989;45.524;10.938;2023-11-22T14:40:44;5.93;;;1.55;;
41255;SDS011;26989;45.524;10.938;2023-11-22T14:43:11;2.50;;;1.40;;
41255;SDS011;26989;45.524;10.938;2023-11-22T14:45:38;3.90;;;1.75;;
41255;SDS011;26989;45.524;10.938;2023-11-22T14:48:06;2.55;;;1.60;;
41255;SDS011;26989;45.524;10.938;2023-11-22T14:50:35;6.72;;;1.88;;